Decoded Metar for UMII (VITEBSK in BELARUS) (IATA:VTB) | Meteo·Mobile Aviation Weather
aviador You're here:

UMII Decoded Metar

VITEBSK in BELARUS
Report Time2019-10-21 08:00:00
UTC Time2019-10-21 08:36:01
Flight Rules ifr IFR
Wind220° at 6 kt
W.Decomp.*RWY 23: 5.7 kt HW 1.9 kt LCW
Visibility4900 m
Phenomena:Mist
Clouds:N/A
Expected CloudBase > 400 ft AGL from Temp-Dew spread
CeilingNone
Temp12°C (ISA -2)
Dew Point11°C (94% RH)
AAT10.2°C
QNH1017 hPa
Density Alt531 ft
Elevation682 ft
Report Wrong Elevation
Raw Report
UMII 210800Z 22003MPS 4900 BR NSC 12/11 Q1017 R23/120062 TEMPO
2000=

Extra information for UMII:More info

Metar Taf Metar & Taf Last 4 Metars F.Rules Stats Wind Profile Meteogram Temp Stats Airport Information Weather charts Add Link Nearby VenuesMetar ALERT Operation Metar Decoded Social comments